sensor_id;sensor_type;location;lat;lon;timestamp;P1;durP1;ratioP1;P2;durP2;ratioP2
20026;SDS011;10174;42.688;23.344;2022-11-15T00:01:35;340.35;;;133.27;;
20026;SDS011;10174;42.688;23.344;2022-11-15T00:04:02;331.88;;;129.57;;
20026;SDS011;10174;42.688;23.344;2022-11-15T00:06:28;327.30;;;128.48;;
20026;SDS011;10174;42.688;23.344;2022-11-15T00:08:53;336.05;;;129.07;;
20026;SDS011;10174;42.688;23.344;2022-11-15T00:11:19;331.08;;;128.32;;
20026;SDS011;10174;42.688;23.344;2022-11-15T00:13:44;321.80;;;127.28;;
20026;SDS011;10174;42.688;23.344;2022-11-15T00:16:10;328.40;;;126.82;;
20026;SDS011;10174;42.688;23.344;2022-11-15T00:18:35;325.83;;;123.15;;
20026;SDS011;10174;42.688;23.344;2022-11-15T00:21:04;343.98;;;129.23;;
20026;SDS011;10174;42.688;23.344;2022-11-15T00:23:32;327.08;;;126.88;;
20026;SDS011;10174;42.688;23.344;2022-11-15T00:25:58;318.67;;;124.55;;
20026;SDS011;10174;42.688;23.344;2022-11-15T00:28:24;320.92;;;123.10;;
20026;SDS011;10174;42.688;23.344;2022-11-15T00:30:51;333.05;;;127.03;;
20026;SDS011;10174;42.688;23.344;2022-11-15T00:33:16;322.95;;;125.28;;
20026;SDS011;10174;42.688;23.344;2022-11-15T00:35:42;329.52;;;120.93;;
20026;SDS011;10174;42.688;23.344;2022-11-15T00:38:07;324.88;;;120.97;;
20026;SDS011;10174;42.688;23.344;2022-11-15T00:40:33;308.92;;;119.95;;
20026;SDS011;10174;42.688;23.344;2022-11-15T00:42:58;316.98;;;119.70;;
20026;SDS011;10174;42.688;23.344;2022-11-15T00:45:24;314.25;;;117.30;;
20026;SDS011;10174;42.688;23.344;2022-11-15T00:47:50;312.10;;;117.65;;
20026;SDS011;10174;42.688;23.344;2022-11-15T00:50:15;301.85;;;114.65;;
20026;SDS011;10174;42.688;23.344;2022-11-15T00:52:41;306.48;;;117.45;;
20026;SDS011;10174;42.688;23.344;2022-11-15T00:55:07;305.13;;;115.82;;
20026;SDS011;10174;42.688;23.344;2022-11-15T00:57:38;305.92;;;111.45;;
20026;SDS011;10174;42.688;23.344;2022-11-15T01:00:04;290.50;;;114.22;;
20026;SDS011;10174;42.688;23.344;2022-11-15T01:02:30;299.95;;;114.68;;
20026;SDS011;10174;42.688;23.344;2022-11-15T01:04:55;303.15;;;112.60;;
20026;SDS011;10174;42.688;23.344;2022-11-15T01:07:21;292.23;;;111.40;;
20026;SDS011;10174;42.688;23.344;2022-11-15T01:09:46;289.17;;;109.45;;
20026;SDS011;10174;42.688;23.344;2022-11-15T01:12:11;281.77;;;104.63;;
20026;SDS011;10174;42.688;23.344;2022-11-15T01:14:37;292.20;;;105.97;;
20026;SDS011;10174;42.688;23.344;2022-11-15T01:17:02;292.42;;;107.40;;
20026;SDS011;10174;42.688;23.344;2022-11-15T01:19:27;290.02;;;104.82;;
20026;SDS011;10174;42.688;23.344;2022-11-15T01:21:53;284.70;;;105.25;;
20026;SDS011;10174;42.688;23.344;2022-11-15T01:24:18;277.38;;;102.65;;
20026;SDS011;10174;42.688;23.344;2022-11-15T01:26:43;271.20;;;100.43;;
20026;SDS011;10174;42.688;23.344;2022-11-15T01:29:09;263.88;;;100.57;;
20026;SDS011;10174;42.688;23.344;2022-11-15T01:31:34;277.90;;;102.10;;
20026;SDS011;10174;42.688;23.344;2022-11-15T01:33:59;283.52;;;103.30;;
20026;SDS011;10174;42.688;23.344;2022-11-15T01:36:25;270.48;;;101.85;;
20026;SDS011;10174;42.688;23.344;2022-11-15T01:38:54;268.27;;;98.75;;
20026;SDS011;10174;42.688;23.344;2022-11-15T01:41:28;266.02;;;97.50;;
20026;SDS011;10174;42.688;23.344;2022-11-15T01:47:02;260.75;;;94.78;;
20026;SDS011;10174;42.688;23.344;2022-11-15T01:49:32;259.23;;;91.70;;
20026;SDS011;10174;42.688;23.344;2022-11-15T01:52:00;251.40;;;89.75;;
20026;SDS011;10174;42.688;23.344;2022-11-15T01:54:29;243.80;;;88.97;;
20026;SDS011;10174;42.688;23.344;2022-11-15T01:56:56;236.40;;;88.40;;
20026;SDS011;10174;42.688;23.344;2022-11-15T01:59:35;240.45;;;85.47;;
20026;SDS011;10174;42.688;23.344;2022-11-15T02:02:03;223.13;;;86.07;;
20026;SDS011;10174;42.688;23.344;2022-11-15T02:04:29;247.38;;;88.35;;
20026;SDS011;10174;42.688;23.344;2022-11-15T02:06:57;239.43;;;83.90;;
20026;SDS011;10174;42.688;23.344;2022-11-15T02:09:24;238.55;;;83.90;;
20026;SDS011;10174;42.688;23.344;2022-11-15T02:11:50;230.15;;;84.75;;
20026;SDS011;10174;42.688;23.344;2022-11-15T02:14:18;237.60;;;84.38;;
20026;SDS011;10174;42.688;23.344;2022-11-15T02:33:53;210.35;;;76.78;;
20026;SDS011;10174;42.688;23.344;2022-11-15T02:39:03;226.75;;;77.65;;
20026;SDS011;10174;42.688;23.344;2022-11-15T02:41:45;219.60;;;78.00;;
20026;SDS011;10174;42.688;23.344;2022-11-15T02:44:37;211.93;;;74.90;;
20026;SDS011;10174;42.688;23.344;2022-11-15T02:47:07;220.88;;;77.10;;
20026;SDS011;10174;42.688;23.344;2022-11-15T02:49:46;210.48;;;74.18;;
20026;SDS011;10174;42.688;23.344;2022-11-15T02:52:20;215.68;;;76.53;;
20026;SDS011;10174;42.688;23.344;2022-11-15T02:54:59;209.10;;;73.75;;
20026;SDS011;10174;42.688;23.344;2022-11-15T03:00:07;218.77;;;76.97;;
20026;SDS011;10174;42.688;23.344;2022-11-15T03:08:05;221.50;;;76.80;;
20026;SDS011;10174;42.688;23.344;2022-11-15T03:10:42;204.07;;;73.20;;
20026;SDS011;10174;42.688;23.344;2022-11-15T03:13:44;203.70;;;73.65;;
20026;SDS011;10174;42.688;23.344;2022-11-15T03:16:19;208.30;;;75.07;;
20026;SDS011;10174;42.688;23.344;2022-11-15T03:18:52;197.05;;;74.03;;
20026;SDS011;10174;42.688;23.344;2022-11-15T03:21:24;220.10;;;76.60;;
20026;SDS011;10174;42.688;23.344;2022-11-15T03:23:50;209.93;;;72.22;;
20026;SDS011;10174;42.688;23.344;2022-11-15T03:26:18;239.40;;;79.25;;
20026;SDS011;10174;42.688;23.344;2022-11-15T03:28:50;227.00;;;77.82;;
20026;SDS011;10174;42.688;23.344;2022-11-15T03:31:19;244.13;;;81.22;;
20026;SDS011;10174;42.688;23.344;2022-11-15T03:34:10;235.30;;;76.25;;
20026;SDS011;10174;42.688;23.344;2022-11-15T03:36:44;230.80;;;73.38;;
20026;SDS011;10174;42.688;23.344;2022-11-15T03:39:10;236.65;;;75.90;;
20026;SDS011;10174;42.688;23.344;2022-11-15T03:46:43;236.50;;;76.93;;
20026;SDS011;10174;42.688;23.344;2022-11-15T03:49:17;231.77;;;75.13;;
20026;SDS011;10174;42.688;23.344;2022-11-15T03:51:49;227.38;;;76.45;;
20026;SDS011;10174;42.688;23.344;2022-11-15T03:54:14;230.95;;;70.65;;
20026;SDS011;10174;42.688;23.344;2022-11-15T03:56:40;226.02;;;72.47;;
20026;SDS011;10174;42.688;23.344;2022-11-15T03:59:05;219.65;;;71.82;;
20026;SDS011;10174;42.688;23.344;2022-11-15T04:01:30;232.30;;;73.88;;
20026;SDS011;10174;42.688;23.344;2022-11-15T04:03:56;237.68;;;72.82;;
20026;SDS011;10174;42.688;23.344;2022-11-15T04:06:22;236.52;;;73.22;;
20026;SDS011;10174;42.688;23.344;2022-11-15T04:08:47;247.07;;;72.20;;
20026;SDS011;10174;42.688;23.344;2022-11-15T04:11:13;242.18;;;73.53;;
20026;SDS011;10174;42.688;23.344;2022-11-15T04:13:38;238.57;;;73.68;;
20026;SDS011;10174;42.688;23.344;2022-11-15T04:16:03;238.15;;;74.22;;
20026;SDS011;10174;42.688;23.344;2022-11-15T04:18:29;248.15;;;76.93;;
20026;SDS011;10174;42.688;23.344;2022-11-15T04:20:54;248.38;;;77.15;;
20026;SDS011;10174;42.688;23.344;2022-11-15T04:23:38;235.60;;;75.28;;
20026;SDS011;10174;42.688;23.344;2022-11-15T04:26:22;242.50;;;77.25;;
20026;SDS011;10174;42.688;23.344;2022-11-15T04:28:48;219.77;;;74.55;;
20026;SDS011;10174;42.688;23.344;2022-11-15T04:31:36;230.32;;;78.30;;
20026;SDS011;10174;42.688;23.344;2022-11-15T04:34:02;242.38;;;78.68;;
20026;SDS011;10174;42.688;23.344;2022-11-15T04:36:27;240.05;;;80.95;;
20026;SDS011;10174;42.688;23.344;2022-11-15T04:39:11;234.50;;;81.68;;
20026;SDS011;10174;42.688;23.344;2022-11-15T04:41:36;234.27;;;78.07;;
20026;SDS011;10174;42.688;23.344;2022-11-15T04:44:02;239.07;;;82.43;;
20026;SDS011;10174;42.688;23.344;2022-11-15T04:46:27;226.82;;;82.53;;
20026;SDS011;10174;42.688;23.344;2022-11-15T04:48:53;236.20;;;79.05;;
20026;SDS011;10174;42.688;23.344;2022-11-15T04:51:18;232.35;;;79.50;;
20026;SDS011;10174;42.688;23.344;2022-11-15T04:53:44;259.17;;;93.50;;
20026;SDS011;10174;42.688;23.344;2022-11-15T04:56:10;242.00;;;88.32;;
20026;SDS011;10174;42.688;23.344;2022-11-15T04:58:35;236.35;;;86.60;;
20026;SDS011;10174;42.688;23.344;2022-11-15T05:01:08;230.65;;;83.85;;
20026;SDS011;10174;42.688;23.344;2022-11-15T05:03:34;210.57;;;79.78;;
20026;SDS011;10174;42.688;23.344;2022-11-15T05:06:17;167.27;;;66.45;;
20026;SDS011;10174;42.688;23.344;2022-11-15T05:08:43;177.55;;;65.05;;
20026;SDS011;10174;42.688;23.344;2022-11-15T05:11:08;165.48;;;66.05;;
20026;SDS011;10174;42.688;23.344;2022-11-15T05:13:34;160.63;;;66.22;;
20026;SDS011;10174;42.688;23.344;2022-11-15T05:15:59;171.20;;;65.85;;
20026;SDS011;10174;42.688;23.344;2022-11-15T05:18:24;167.32;;;65.40;;
20026;SDS011;10174;42.688;23.344;2022-11-15T05:20:50;171.40;;;66.60;;
20026;SDS011;10174;42.688;23.344;2022-11-15T05:23:15;168.48;;;64.82;;
20026;SDS011;10174;42.688;23.344;2022-11-15T05:25:41;164.43;;;65.53;;
20026;SDS011;10174;42.688;23.344;2022-11-15T05:28:06;168.10;;;65.10;;
20026;SDS011;10174;42.688;23.344;2022-11-15T05:30:31;164.02;;;62.35;;
20026;SDS011;10174;42.688;23.344;2022-11-15T05:32:57;157.75;;;61.60;;
20026;SDS011;10174;42.688;23.344;2022-11-15T05:35:41;145.23;;;53.90;;
20026;SDS011;10174;42.688;23.344;2022-11-15T05:38:11;129.50;;;51.88;;
20026;SDS011;10174;42.688;23.344;2022-11-15T05:40:36;127.47;;;52.85;;
20026;SDS011;10174;42.688;23.344;2022-11-15T05:43:02;113.35;;;47.17;;
20026;SDS011;10174;42.688;23.344;2022-11-15T05:45:29;118.07;;;44.08;;
20026;SDS011;10174;42.688;23.344;2022-11-15T05:47:56;112.68;;;40.25;;
20026;SDS011;10174;42.688;23.344;2022-11-15T05:50:24;107.03;;;36.38;;
20026;SDS011;10174;42.688;23.344;2022-11-15T05:52:51;95.85;;;36.83;;
20026;SDS011;10174;42.688;23.344;2022-11-15T05:55:16;94.97;;;34.78;;
20026;SDS011;10174;42.688;23.344;2022-11-15T05:57:42;93.72;;;32.75;;
20026;SDS011;10174;42.688;23.344;2022-11-15T06:00:08;92.85;;;31.27;;
20026;SDS011;10174;42.688;23.344;2022-11-15T06:02:34;87.80;;;32.75;;
20026;SDS011;10174;42.688;23.344;2022-11-15T06:04:59;101.90;;;31.45;;
20026;SDS011;10174;42.688;23.344;2022-11-15T06:07:25;99.28;;;32.90;;
20026;SDS011;10174;42.688;23.344;2022-11-15T06:09:50;96.65;;;30.88;;
20026;SDS011;10174;42.688;23.344;2022-11-15T06:12:16;103.85;;;32.50;;
20026;SDS011;10174;42.688;23.344;2022-11-15T06:14:41;100.00;;;32.47;;
20026;SDS011;10174;42.688;23.344;2022-11-15T06:17:06;90.22;;;29.08;;
20026;SDS011;10174;42.688;23.344;2022-11-15T06:19:32;74.95;;;29.25;;
20026;SDS011;10174;42.688;23.344;2022-11-15T06:22:00;84.18;;;29.48;;
20026;SDS011;10174;42.688;23.344;2022-11-15T06:24:26;79.57;;;28.80;;
20026;SDS011;10174;42.688;23.344;2022-11-15T06:26:51;78.45;;;29.80;;
20026;SDS011;10174;42.688;23.344;2022-11-15T06:29:17;84.53;;;29.65;;
20026;SDS011;10174;42.688;23.344;2022-11-15T06:31:42;98.72;;;33.67;;
20026;SDS011;10174;42.688;23.344;2022-11-15T06:34:08;99.32;;;32.63;;
20026;SDS011;10174;42.688;23.344;2022-11-15T06:36:34;110.10;;;36.45;;
20026;SDS011;10174;42.688;23.344;2022-11-15T06:38:59;137.40;;;42.25;;
20026;SDS011;10174;42.688;23.344;2022-11-15T06:41:25;144.50;;;43.72;;
20026;SDS011;10174;42.688;23.344;2022-11-15T06:43:50;168.93;;;49.85;;
20026;SDS011;10174;42.688;23.344;2022-11-15T06:46:16;168.00;;;49.80;;
20026;SDS011;10174;42.688;23.344;2022-11-15T06:48:41;149.65;;;46.90;;
20026;SDS011;10174;42.688;23.344;2022-11-15T06:51:07;155.40;;;47.20;;
20026;SDS011;10174;42.688;23.344;2022-11-15T06:53:33;151.55;;;43.72;;
20026;SDS011;10174;42.688;23.344;2022-11-15T06:55:59;164.45;;;52.72;;
20026;SDS011;10174;42.688;23.344;2022-11-15T06:58:25;140.02;;;45.78;;
20026;SDS011;10174;42.688;23.344;2022-11-15T07:00:51;132.68;;;43.45;;
20026;SDS011;10174;42.688;23.344;2022-11-15T07:03:16;133.43;;;43.13;;
20026;SDS011;10174;42.688;23.344;2022-11-15T07:05:41;131.82;;;41.92;;
20026;SDS011;10174;42.688;23.344;2022-11-15T07:08:07;125.05;;;41.00;;
20026;SDS011;10174;42.688;23.344;2022-11-15T07:10:32;112.63;;;39.30;;
20026;SDS011;10174;42.688;23.344;2022-11-15T07:12:58;116.75;;;38.70;;
20026;SDS011;10174;42.688;23.344;2022-11-15T07:15:24;116.28;;;39.67;;
20026;SDS011;10174;42.688;23.344;2022-11-15T07:17:50;113.50;;;37.85;;
20026;SDS011;10174;42.688;23.344;2022-11-15T07:20:16;102.22;;;34.75;;
20026;SDS011;10174;42.688;23.344;2022-11-15T07:22:42;91.00;;;34.35;;
20026;SDS011;10174;42.688;23.344;2022-11-15T07:25:10;97.28;;;33.63;;
20026;SDS011;10174;42.688;23.344;2022-11-15T07:27:35;108.40;;;35.88;;
20026;SDS011;10174;42.688;23.344;2022-11-15T07:30:01;116.20;;;38.58;;
20026;SDS011;10174;42.688;23.344;2022-11-15T07:32:26;108.22;;;37.13;;
20026;SDS011;10174;42.688;23.344;2022-11-15T07:34:52;121.97;;;39.53;;
20026;SDS011;10174;42.688;23.344;2022-11-15T07:37:17;127.78;;;39.50;;
20026;SDS011;10174;42.688;23.344;2022-11-15T07:39:43;123.82;;;39.63;;
20026;SDS011;10174;42.688;23.344;2022-11-15T07:42:09;134.50;;;42.15;;
20026;SDS011;10174;42.688;23.344;2022-11-15T07:44:53;136.02;;;41.72;;
20026;SDS011;10174;42.688;23.344;2022-11-15T07:47:18;149.70;;;43.47;;
20026;SDS011;10174;42.688;23.344;2022-11-15T07:49:44;138.45;;;42.88;;
20026;SDS011;10174;42.688;23.344;2022-11-15T07:52:11;135.60;;;43.65;;
20026;SDS011;10174;42.688;23.344;2022-11-15T07:54:36;144.27;;;43.28;;
20026;SDS011;10174;42.688;23.344;2022-11-15T07:57:02;147.95;;;46.80;;
20026;SDS011;10174;42.688;23.344;2022-11-15T07:59:27;150.88;;;46.97;;
20026;SDS011;10174;42.688;23.344;2022-11-15T08:01:52;144.15;;;45.00;;
20026;SDS011;10174;42.688;23.344;2022-11-15T08:04:18;151.95;;;46.15;;
20026;SDS011;10174;42.688;23.344;2022-11-15T08:06:43;152.65;;;48.50;;
20026;SDS011;10174;42.688;23.344;2022-11-15T08:09:09;144.32;;;44.97;;
20026;SDS011;10174;42.688;23.344;2022-11-15T08:11:34;141.90;;;48.42;;
20026;SDS011;10174;42.688;23.344;2022-11-15T08:13:59;147.05;;;50.33;;
20026;SDS011;10174;42.688;23.344;2022-11-15T08:16:25;152.25;;;50.45;;
20026;SDS011;10174;42.688;23.344;2022-11-15T08:18:50;174.18;;;53.50;;
20026;SDS011;10174;42.688;23.344;2022-11-15T08:21:18;165.57;;;51.38;;
20026;SDS011;10174;42.688;23.344;2022-11-15T08:23:45;163.10;;;50.30;;
20026;SDS011;10174;42.688;23.344;2022-11-15T08:26:10;160.30;;;52.13;;
20026;SDS011;10174;42.688;23.344;2022-11-15T08:28:36;161.50;;;51.90;;
20026;SDS011;10174;42.688;23.344;2022-11-15T08:31:02;163.10;;;53.75;;
20026;SDS011;10174;42.688;23.344;2022-11-15T08:33:29;173.70;;;55.08;;
20026;SDS011;10174;42.688;23.344;2022-11-15T08:35:58;160.43;;;51.28;;
20026;SDS011;10174;42.688;23.344;2022-11-15T08:38:24;163.15;;;53.13;;
20026;SDS011;10174;42.688;23.344;2022-11-15T08:40:51;170.45;;;55.85;;
20026;SDS011;10174;42.688;23.344;2022-11-15T08:43:18;170.18;;;55.85;;
20026;SDS011;10174;42.688;23.344;2022-11-15T08:45:44;169.18;;;54.67;;
20026;SDS011;10174;42.688;23.344;2022-11-15T08:48:09;161.38;;;53.75;;
20026;SDS011;10174;42.688;23.344;2022-11-15T08:50:35;165.40;;;55.75;;
20026;SDS011;10174;42.688;23.344;2022-11-15T08:53:07;158.23;;;53.80;;
20026;SDS011;10174;42.688;23.344;2022-11-15T08:55:35;146.23;;;51.83;;
20026;SDS011;10174;42.688;23.344;2022-11-15T08:58:01;167.75;;;57.03;;
20026;SDS011;10174;42.688;23.344;2022-11-15T09:00:27;175.38;;;58.03;;
20026;SDS011;10174;42.688;23.344;2022-11-15T09:02:52;166.10;;;54.08;;
20026;SDS011;10174;42.688;23.344;2022-11-15T09:05:17;174.45;;;58.25;;
20026;SDS011;10174;42.688;23.344;2022-11-15T09:07:43;167.95;;;58.38;;
20026;SDS011;10174;42.688;23.344;2022-11-15T09:10:09;170.38;;;57.78;;
20026;SDS011;10174;42.688;23.344;2022-11-15T09:12:34;202.35;;;62.83;;
20026;SDS011;10174;42.688;23.344;2022-11-15T09:15:00;203.73;;;67.90;;
20026;SDS011;10174;42.688;23.344;2022-11-15T09:17:25;210.90;;;65.97;;
20026;SDS011;10174;42.688;23.344;2022-11-15T09:19:51;201.63;;;67.65;;
20026;SDS011;10174;42.688;23.344;2022-11-15T09:22:16;190.10;;;62.33;;
20026;SDS011;10174;42.688;23.344;2022-11-15T09:24:41;183.00;;;59.97;;
20026;SDS011;10174;42.688;23.344;2022-11-15T09:27:07;199.40;;;62.83;;
20026;SDS011;10174;42.688;23.344;2022-11-15T09:29:32;177.77;;;60.30;;
20026;SDS011;10174;42.688;23.344;2022-11-15T09:31:58;187.85;;;63.33;;
20026;SDS011;10174;42.688;23.344;2022-11-15T09:34:24;192.07;;;62.63;;
20026;SDS011;10174;42.688;23.344;2022-11-15T09:36:49;193.27;;;64.47;;
20026;SDS011;10174;42.688;23.344;2022-11-15T09:39:15;201.68;;;65.50;;
20026;SDS011;10174;42.688;23.344;2022-11-15T09:44:28;214.55;;;72.22;;
20026;SDS011;10174;42.688;23.344;2022-11-15T09:47:17;207.43;;;65.38;;
20026;SDS011;10174;42.688;23.344;2022-11-15T09:49:51;206.90;;;69.03;;
20026;SDS011;10174;42.688;23.344;2022-11-15T09:52:19;202.13;;;68.20;;
20026;SDS011;10174;42.688;23.344;2022-11-15T09:54:47;209.40;;;69.43;;
20026;SDS011;10174;42.688;23.344;2022-11-15T10:05:14;205.10;;;69.32;;
20026;SDS011;10174;42.688;23.344;2022-11-15T10:07:54;236.50;;;74.43;;
20026;SDS011;10174;42.688;23.344;2022-11-15T10:10:40;204.05;;;69.07;;
20026;SDS011;10174;42.688;23.344;2022-11-15T10:13:14;196.25;;;66.32;;
20026;SDS011;10174;42.688;23.344;2022-11-15T10:15:47;196.82;;;67.82;;
20026;SDS011;10174;42.688;23.344;2022-11-15T10:20:50;188.02;;;67.22;;
20026;SDS011;10174;42.688;23.344;2022-11-15T10:23:23;194.73;;;71.90;;
20026;SDS011;10174;42.688;23.344;2022-11-15T10:25:51;185.65;;;65.32;;
20026;SDS011;10174;42.688;23.344;2022-11-15T10:28:22;189.68;;;66.03;;
20026;SDS011;10174;42.688;23.344;2022-11-15T10:30:53;183.57;;;67.97;;
20026;SDS011;10174;42.688;23.344;2022-11-15T10:33:27;178.32;;;66.93;;
20026;SDS011;10174;42.688;23.344;2022-11-15T10:41:13;178.23;;;66.78;;
20026;SDS011;10174;42.688;23.344;2022-11-15T10:43:39;180.85;;;68.32;;
20026;SDS011;10174;42.688;23.344;2022-11-15T10:46:25;181.95;;;70.85;;
20026;SDS011;10174;42.688;23.344;2022-11-15T10:48:50;201.27;;;75.10;;
20026;SDS011;10174;42.688;23.344;2022-11-15T10:51:26;187.27;;;72.35;;
20026;SDS011;10174;42.688;23.344;2022-11-15T10:53:54;193.70;;;76.30;;
20026;SDS011;10174;42.688;23.344;2022-11-15T10:56:22;201.73;;;79.55;;
20026;SDS011;10174;42.688;23.344;2022-11-15T10:58:53;214.80;;;84.45;;
20026;SDS011;10174;42.688;23.344;2022-11-15T11:01:24;211.45;;;81.53;;
20026;SDS011;10174;42.688;23.344;2022-11-15T11:06:26;218.13;;;81.45;;
20026;SDS011;10174;42.688;23.344;2022-11-15T11:08:55;187.45;;;73.72;;
20026;SDS011;10174;42.688;23.344;2022-11-15T11:11:20;177.80;;;70.20;;
20026;SDS011;10174;42.688;23.344;2022-11-15T11:13:46;181.52;;;68.03;;
20026;SDS011;10174;42.688;23.344;2022-11-15T11:21:43;159.35;;;63.28;;
20026;SDS011;10174;42.688;23.344;2022-11-15T11:35:12;184.93;;;66.63;;
20026;SDS011;10174;42.688;23.344;2022-11-15T11:40:28;161.55;;;65.60;;
20026;SDS011;10174;42.688;23.344;2022-11-15T11:43:12;169.63;;;66.38;;
20026;SDS011;10174;42.688;23.344;2022-11-15T11:48:51;159.40;;;63.03;;
20026;SDS011;10174;42.688;23.344;2022-11-15T11:51:42;182.82;;;62.30;;
20026;SDS011;10174;42.688;23.344;2022-11-15T11:54:14;153.38;;;60.08;;
20026;SDS011;10174;42.688;23.344;2022-11-15T11:56:46;187.35;;;72.43;;
20026;SDS011;10174;42.688;23.344;2022-11-15T11:59:22;153.63;;;62.05;;
20026;SDS011;10174;42.688;23.344;2022-11-15T12:01:53;158.82;;;64.60;;
20026;SDS011;10174;42.688;23.344;2022-11-15T12:06:59;168.32;;;66.93;;
20026;SDS011;10174;42.688;23.344;2022-11-15T12:09:44;178.52;;;71.40;;
20026;SDS011;10174;42.688;23.344;2022-11-15T12:12:31;160.38;;;65.90;;
20026;SDS011;10174;42.688;23.344;2022-11-15T12:17:36;154.88;;;63.92;;
20026;SDS011;10174;42.688;23.344;2022-11-15T12:20:04;149.13;;;61.05;;
20026;SDS011;10174;42.688;23.344;2022-11-15T12:25:16;152.95;;;58.60;;
20026;SDS011;10174;42.688;23.344;2022-11-15T12:28:47;149.35;;;59.90;;
20026;SDS011;10174;42.688;23.344;2022-11-15T12:30:55;145.45;;;57.88;;
20026;SDS011;10174;42.688;23.344;2022-11-15T12:33:30;141.02;;;58.15;;
20026;SDS011;10174;42.688;23.344;2022-11-15T12:36:05;145.63;;;56.38;;
20026;SDS011;10174;42.688;23.344;2022-11-15T12:41:34;135.38;;;58.08;;
20026;SDS011;10174;42.688;23.344;2022-11-15T12:44:05;143.73;;;57.30;;
20026;SDS011;10174;42.688;23.344;2022-11-15T13:17:37;171.80;;;68.32;;
20026;SDS011;10174;42.688;23.344;2022-11-15T13:25:40;169.10;;;67.93;;
20026;SDS011;10174;42.688;23.344;2022-11-15T13:35:46;165.32;;;67.53;;
20026;SDS011;10174;42.688;23.344;2022-11-15T13:40:49;162.90;;;66.45;;
20026;SDS011;10174;42.688;23.344;2022-11-15T13:45:45;159.73;;;65.13;;
20026;SDS011;10174;42.688;23.344;2022-11-15T13:48:29;166.15;;;66.30;;
20026;SDS011;10174;42.688;23.344;2022-11-15T13:50:55;170.65;;;67.18;;
20026;SDS011;10174;42.688;23.344;2022-11-15T13:53:22;171.10;;;68.35;;
20026;SDS011;10174;42.688;23.344;2022-11-15T13:55:49;179.38;;;68.53;;
20026;SDS011;10174;42.688;23.344;2022-11-15T13:58:15;170.40;;;65.88;;
20026;SDS011;10174;42.688;23.344;2022-11-15T14:00:42;159.10;;;65.00;;
20026;SDS011;10174;42.688;23.344;2022-11-15T14:03:18;151.73;;;61.83;;
20026;SDS011;10174;42.688;23.344;2022-11-15T14:06:06;158.88;;;63.28;;
20026;SDS011;10174;42.688;23.344;2022-11-15T14:08:37;165.40;;;63.85;;
20026;SDS011;10174;42.688;23.344;2022-11-15T14:11:08;170.48;;;65.15;;
20026;SDS011;10174;42.688;23.344;2022-11-15T14:16:41;161.43;;;67.60;;
20026;SDS011;10174;42.688;23.344;2022-11-15T14:19:33;164.20;;;64.57;;
20026;SDS011;10174;42.688;23.344;2022-11-15T14:22:12;164.88;;;62.50;;
20026;SDS011;10174;42.688;23.344;2022-11-15T14:24:38;172.25;;;65.97;;
20026;SDS011;10174;42.688;23.344;2022-11-15T14:27:17;160.00;;;64.05;;
20026;SDS011;10174;42.688;23.344;2022-11-15T14:29:45;176.23;;;68.13;;
20026;SDS011;10174;42.688;23.344;2022-11-15T14:32:27;173.02;;;65.38;;
20026;SDS011;10174;42.688;23.344;2022-11-15T14:34:58;173.38;;;66.78;;
20026;SDS011;10174;42.688;23.344;2022-11-15T14:37:34;181.38;;;72.45;;
20026;SDS011;10174;42.688;23.344;2022-11-15T14:39:59;187.02;;;71.07;;
20026;SDS011;10174;42.688;23.344;2022-11-15T14:42:26;180.38;;;71.18;;
20026;SDS011;10174;42.688;23.344;2022-11-15T14:44:52;182.15;;;70.80;;
20026;SDS011;10174;42.688;23.344;2022-11-15T14:47:17;201.55;;;77.55;;
20026;SDS011;10174;42.688;23.344;2022-11-15T14:49:43;190.90;;;73.18;;
20026;SDS011;10174;42.688;23.344;2022-11-15T14:52:31;191.13;;;72.40;;
20026;SDS011;10174;42.688;23.344;2022-11-15T14:54:59;186.13;;;68.72;;
20026;SDS011;10174;42.688;23.344;2022-11-15T14:57:27;191.63;;;74.43;;
20026;SDS011;10174;42.688;23.344;2022-11-15T14:59:52;178.85;;;67.95;;
20026;SDS011;10174;42.688;23.344;2022-11-15T15:02:19;178.55;;;69.57;;
20026;SDS011;10174;42.688;23.344;2022-11-15T15:04:49;187.90;;;69.97;;
20026;SDS011;10174;42.688;23.344;2022-11-15T15:07:15;178.27;;;65.97;;
20026;SDS011;10174;42.688;23.344;2022-11-15T15:09:41;183.48;;;69.80;;
20026;SDS011;10174;42.688;23.344;2022-11-15T15:12:22;175.85;;;67.65;;
20026;SDS011;10174;42.688;23.344;2022-11-15T15:14:49;184.80;;;69.40;;
20026;SDS011;10174;42.688;23.344;2022-11-15T15:17:15;184.43;;;68.78;;
20026;SDS011;10174;42.688;23.344;2022-11-15T15:19:41;183.90;;;69.35;;
20026;SDS011;10174;42.688;23.344;2022-11-15T15:22:17;184.77;;;71.97;;
20026;SDS011;10174;42.688;23.344;2022-11-15T15:27:10;190.07;;;68.13;;
20026;SDS011;10174;42.688;23.344;2022-11-15T15:29:36;187.55;;;69.03;;
20026;SDS011;10174;42.688;23.344;2022-11-15T15:32:02;191.98;;;68.97;;
20026;SDS011;10174;42.688;23.344;2022-11-15T15:34:27;188.60;;;68.15;;
20026;SDS011;10174;42.688;23.344;2022-11-15T15:37:39;193.10;;;73.75;;
20026;SDS011;10174;42.688;23.344;2022-11-15T15:39:50;194.80;;;71.25;;
20026;SDS011;10174;42.688;23.344;2022-11-15T15:42:17;198.20;;;70.68;;
20026;SDS011;10174;42.688;23.344;2022-11-15T15:44:43;196.73;;;70.43;;
20026;SDS011;10174;42.688;23.344;2022-11-15T15:47:11;197.13;;;71.18;;
20026;SDS011;10174;42.688;23.344;2022-11-15T15:49:38;187.77;;;72.00;;
20026;SDS011;10174;42.688;23.344;2022-11-15T15:52:04;184.23;;;69.38;;
20026;SDS011;10174;42.688;23.344;2022-11-15T15:54:29;212.02;;;80.10;;
20026;SDS011;10174;42.688;23.344;2022-11-15T15:56:54;209.98;;;76.80;;
20026;SDS011;10174;42.688;23.344;2022-11-15T15:59:20;200.70;;;73.78;;
20026;SDS011;10174;42.688;23.344;2022-11-15T16:01:45;204.48;;;77.55;;
20026;SDS011;10174;42.688;23.344;2022-11-15T16:04:10;204.82;;;74.22;;
20026;SDS011;10174;42.688;23.344;2022-11-15T16:06:39;187.07;;;71.82;;
20026;SDS011;10174;42.688;23.344;2022-11-15T16:09:12;184.18;;;70.00;;
20026;SDS011;10174;42.688;23.344;2022-11-15T16:11:44;183.68;;;71.10;;
20026;SDS011;10174;42.688;23.344;2022-11-15T16:14:11;177.57;;;68.03;;
20026;SDS011;10174;42.688;23.344;2022-11-15T16:16:37;183.60;;;72.10;;
20026;SDS011;10174;42.688;23.344;2022-11-15T16:19:03;191.88;;;68.13;;
20026;SDS011;10174;42.688;23.344;2022-11-15T16:21:29;186.77;;;74.20;;
20026;SDS011;10174;42.688;23.344;2022-11-15T16:23:55;196.88;;;75.60;;
20026;SDS011;10174;42.688;23.344;2022-11-15T16:26:27;211.90;;;80.07;;
20026;SDS011;10174;42.688;23.344;2022-11-15T16:28:54;218.98;;;80.15;;
20026;SDS011;10174;42.688;23.344;2022-11-15T16:31:20;215.98;;;79.15;;